sensor_id;sensor_type;location;lat;lon;timestamp;P1;durP1;ratioP1;P2;durP2;ratioP2
26201;SDS011;13944;28.562;77.188;2022-07-29T00:01:06;30.27;;;17.50;;
26201;SDS011;13944;28.562;77.188;2022-07-29T00:03:33;26.35;;;17.45;;
26201;SDS011;13944;28.562;77.188;2022-07-29T00:06:00;29.05;;;17.55;;
26201;SDS011;13944;28.562;77.188;2022-07-29T00:08:26;27.20;;;18.55;;
26201;SDS011;13944;28.562;77.188;2022-07-29T00:10:53;31.60;;;20.75;;
26201;SDS011;13944;28.562;77.188;2022-07-29T00:13:19;31.85;;;21.60;;
26201;SDS011;13944;28.562;77.188;2022-07-29T00:15:46;35.88;;;21.55;;
26201;SDS011;13944;28.562;77.188;2022-07-29T00:18:12;36.25;;;21.58;;
26201;SDS011;13944;28.562;77.188;2022-07-29T00:20:39;36.38;;;21.83;;
26201;SDS011;13944;28.562;77.188;2022-07-29T00:23:05;40.15;;;22.48;;
26201;SDS011;13944;28.562;77.188;2022-07-29T00:25:32;35.30;;;23.05;;
26201;SDS011;13944;28.562;77.188;2022-07-29T00:27:58;41.53;;;23.85;;
26201;SDS011;13944;28.562;77.188;2022-07-29T00:30:25;35.03;;;21.80;;
26201;SDS011;13944;28.562;77.188;2022-07-29T00:32:51;32.15;;;21.48;;
26201;SDS011;13944;28.562;77.188;2022-07-29T00:35:18;33.55;;;21.88;;
26201;SDS011;13944;28.562;77.188;2022-07-29T00:38:03;34.53;;;22.83;;
26201;SDS011;13944;28.562;77.188;2022-07-29T00:40:30;37.00;;;22.65;;
26201;SDS011;13944;28.562;77.188;2022-07-29T00:42:56;38.80;;;24.02;;
26201;SDS011;13944;28.562;77.188;2022-07-29T00:45:23;36.55;;;23.50;;
26201;SDS011;13944;28.562;77.188;2022-07-29T00:47:49;36.38;;;23.08;;
26201;SDS011;13944;28.562;77.188;2022-07-29T00:50:16;33.80;;;22.92;;
26201;SDS011;13944;28.562;77.188;2022-07-29T00:52:43;37.92;;;23.25;;
26201;SDS011;13944;28.562;77.188;2022-07-29T00:55:13;39.55;;;23.92;;
26201;SDS011;13944;28.562;77.188;2022-07-29T00:57:40;38.30;;;22.10;;
26201;SDS011;13944;28.562;77.188;2022-07-29T01:00:08;31.45;;;19.55;;
26201;SDS011;13944;28.562;77.188;2022-07-29T01:02:35;34.88;;;20.83;;
26201;SDS011;13944;28.562;77.188;2022-07-29T01:05:02;36.30;;;21.58;;
26201;SDS011;13944;28.562;77.188;2022-07-29T01:07:30;29.85;;;19.63;;
26201;SDS011;13944;28.562;77.188;2022-07-29T01:09:58;30.73;;;19.90;;
26201;SDS011;13944;28.562;77.188;2022-07-29T01:12:25;35.95;;;20.35;;
26201;SDS011;13944;28.562;77.188;2022-07-29T01:14:53;31.80;;;19.15;;
26201;SDS011;13944;28.562;77.188;2022-07-29T01:17:28;29.38;;;17.95;;
26201;SDS011;13944;28.562;77.188;2022-07-29T01:20:02;34.15;;;19.52;;
26201;SDS011;13944;28.562;77.188;2022-07-29T01:30:10;32.60;;;17.42;;
26201;SDS011;13944;28.562;77.188;2022-07-29T01:32:38;33.17;;;18.92;;
26201;SDS011;13944;28.562;77.188;2022-07-29T01:37:45;31.45;;;17.83;;
26201;SDS011;13944;28.562;77.188;2022-07-29T01:40:20;33.13;;;19.33;;
26201;SDS011;13944;28.562;77.188;2022-07-29T01:42:58;31.27;;;21.42;;
26201;SDS011;13944;28.562;77.188;2022-07-29T01:51:04;35.17;;;21.17;;
26201;SDS011;13944;28.562;77.188;2022-07-29T01:54:07;35.25;;;20.58;;
26201;SDS011;13944;28.562;77.188;2022-07-29T01:56:25;30.60;;;19.05;;
26201;SDS011;13944;28.562;77.188;2022-07-29T01:58:54;28.50;;;17.85;;
26201;SDS011;13944;28.562;77.188;2022-07-29T02:01:23;32.67;;;17.17;;
26201;SDS011;13944;28.562;77.188;2022-07-29T02:03:50;31.00;;;16.88;;
26201;SDS011;13944;28.562;77.188;2022-07-29T02:06:18;24.77;;;14.68;;
26201;SDS011;13944;28.562;77.188;2022-07-29T02:08:45;24.63;;;15.10;;
26201;SDS011;13944;28.562;77.188;2022-07-29T02:11:13;24.02;;;15.65;;
26201;SDS011;13944;28.562;77.188;2022-07-29T02:13:39;23.90;;;15.80;;
26201;SDS011;13944;28.562;77.188;2022-07-29T02:16:07;25.40;;;16.10;;
26201;SDS011;13944;28.562;77.188;2022-07-29T02:18:35;24.17;;;15.98;;
26201;SDS011;13944;28.562;77.188;2022-07-29T02:21:03;24.35;;;14.98;;
26201;SDS011;13944;28.562;77.188;2022-07-29T02:23:30;28.38;;;14.45;;
26201;SDS011;13944;28.562;77.188;2022-07-29T02:25:58;22.77;;;14.68;;
26201;SDS011;13944;28.562;77.188;2022-07-29T02:28:26;23.85;;;14.15;;
26201;SDS011;13944;28.562;77.188;2022-07-29T02:30:54;26.15;;;14.20;;
26201;SDS011;13944;28.562;77.188;2022-07-29T02:33:22;27.52;;;15.90;;
26201;SDS011;13944;28.562;77.188;2022-07-29T02:35:50;28.05;;;14.95;;
26201;SDS011;13944;28.562;77.188;2022-07-29T02:38:16;31.13;;;16.15;;
26201;SDS011;13944;28.562;77.188;2022-07-29T02:41:07;28.17;;;15.07;;
26201;SDS011;13944;28.562;77.188;2022-07-29T02:43:36;28.30;;;16.25;;
26201;SDS011;13944;28.562;77.188;2022-07-29T02:46:08;30.95;;;17.17;;
26201;SDS011;13944;28.562;77.188;2022-07-29T02:48:36;28.98;;;16.52;;
26201;SDS011;13944;28.562;77.188;2022-07-29T02:51:05;28.92;;;16.25;;
26201;SDS011;13944;28.562;77.188;2022-07-29T02:53:33;30.35;;;17.33;;
26201;SDS011;13944;28.562;77.188;2022-07-29T02:56:10;31.90;;;17.50;;
26201;SDS011;13944;28.562;77.188;2022-07-29T02:58:45;33.10;;;17.30;;
26201;SDS011;13944;28.562;77.188;2022-07-29T03:01:16;33.35;;;18.48;;
26201;SDS011;13944;28.562;77.188;2022-07-29T03:03:44;30.85;;;18.55;;
26201;SDS011;13944;28.562;77.188;2022-07-29T03:06:12;32.45;;;17.88;;
26201;SDS011;13944;28.562;77.188;2022-07-29T03:08:39;33.80;;;18.55;;
26201;SDS011;13944;28.562;77.188;2022-07-29T03:11:07;35.58;;;18.83;;
26201;SDS011;13944;28.562;77.188;2022-07-29T03:13:34;32.38;;;17.50;;
26201;SDS011;13944;28.562;77.188;2022-07-29T03:16:01;38.58;;;18.70;;
26201;SDS011;13944;28.562;77.188;2022-07-29T03:18:28;34.40;;;19.17;;
26201;SDS011;13944;28.562;77.188;2022-07-29T03:20:55;28.92;;;18.40;;
26201;SDS011;13944;28.562;77.188;2022-07-29T03:23:22;31.95;;;18.90;;
26201;SDS011;13944;28.562;77.188;2022-07-29T03:25:49;42.15;;;20.73;;
26201;SDS011;13944;28.562;77.188;2022-07-29T03:28:16;37.50;;;20.73;;
26201;SDS011;13944;28.562;77.188;2022-07-29T03:30:42;37.90;;;21.48;;
26201;SDS011;13944;28.562;77.188;2022-07-29T03:33:09;36.67;;;20.67;;
26201;SDS011;13944;28.562;77.188;2022-07-29T03:35:35;49.40;;;23.05;;
26201;SDS011;13944;28.562;77.188;2022-07-29T03:38:02;39.67;;;23.65;;
26201;SDS011;13944;28.562;77.188;2022-07-29T03:40:38;39.45;;;23.10;;
26201;SDS011;13944;28.562;77.188;2022-07-29T03:43:07;39.15;;;23.80;;
26201;SDS011;13944;28.562;77.188;2022-07-29T03:45:34;40.92;;;23.75;;
26201;SDS011;13944;28.562;77.188;2022-07-29T03:48:08;47.28;;;23.85;;
26201;SDS011;13944;28.562;77.188;2022-07-29T03:50:36;44.92;;;23.63;;
26201;SDS011;13944;28.562;77.188;2022-07-29T03:53:02;42.72;;;24.60;;
26201;SDS011;13944;28.562;77.188;2022-07-29T03:55:32;42.88;;;23.75;;
26201;SDS011;13944;28.562;77.188;2022-07-29T03:57:59;41.70;;;23.60;;
26201;SDS011;13944;28.562;77.188;2022-07-29T04:00:27;46.42;;;23.42;;
26201;SDS011;13944;28.562;77.188;2022-07-29T04:02:54;41.33;;;22.40;;
26201;SDS011;13944;28.562;77.188;2022-07-29T04:05:20;41.13;;;22.67;;
26201;SDS011;13944;28.562;77.188;2022-07-29T04:07:47;41.88;;;22.00;;
26201;SDS011;13944;28.562;77.188;2022-07-29T04:10:14;49.28;;;23.15;;
26201;SDS011;13944;28.562;77.188;2022-07-29T04:12:42;48.88;;;22.67;;
26201;SDS011;13944;28.562;77.188;2022-07-29T04:15:08;48.20;;;24.60;;
26201;SDS011;13944;28.562;77.188;2022-07-29T04:17:35;45.28;;;24.48;;
26201;SDS011;13944;28.562;77.188;2022-07-29T04:20:02;47.33;;;24.20;;
26201;SDS011;13944;28.562;77.188;2022-07-29T04:22:28;48.03;;;24.20;;
26201;SDS011;13944;28.562;77.188;2022-07-29T04:24:55;45.88;;;24.75;;
26201;SDS011;13944;28.562;77.188;2022-07-29T04:27:22;43.88;;;22.58;;
26201;SDS011;13944;28.562;77.188;2022-07-29T04:29:48;39.75;;;21.42;;
26201;SDS011;13944;28.562;77.188;2022-07-29T04:32:14;45.25;;;20.67;;
26201;SDS011;13944;28.562;77.188;2022-07-29T04:34:41;41.25;;;19.33;;
26201;SDS011;13944;28.562;77.188;2022-07-29T04:37:08;41.15;;;19.17;;
26201;SDS011;13944;28.562;77.188;2022-07-29T04:39:34;44.03;;;19.20;;
26201;SDS011;13944;28.562;77.188;2022-07-29T04:42:01;38.22;;;19.88;;
26201;SDS011;13944;28.562;77.188;2022-07-29T04:44:27;42.38;;;18.55;;
26201;SDS011;13944;28.562;77.188;2022-07-29T04:46:54;37.42;;;19.33;;
26201;SDS011;13944;28.562;77.188;2022-07-29T04:49:21;41.28;;;20.23;;
26201;SDS011;13944;28.562;77.188;2022-07-29T04:51:47;42.53;;;18.00;;
26201;SDS011;13944;28.562;77.188;2022-07-29T04:54:14;40.88;;;19.38;;
26201;SDS011;13944;28.562;77.188;2022-07-29T04:56:40;35.28;;;18.17;;
26201;SDS011;13944;28.562;77.188;2022-07-29T04:59:07;31.67;;;15.73;;
26201;SDS011;13944;28.562;77.188;2022-07-29T05:01:34;36.05;;;15.52;;
26201;SDS011;13944;28.562;77.188;2022-07-29T05:04:00;31.98;;;15.93;;
26201;SDS011;13944;28.562;77.188;2022-07-29T05:06:27;29.60;;;15.63;;
26201;SDS011;13944;28.562;77.188;2022-07-29T05:08:53;29.63;;;14.88;;
26201;SDS011;13944;28.562;77.188;2022-07-29T05:11:20;26.45;;;12.85;;
26201;SDS011;13944;28.562;77.188;2022-07-29T05:13:46;27.60;;;12.50;;
26201;SDS011;13944;28.562;77.188;2022-07-29T05:16:13;27.75;;;11.93;;
26201;SDS011;13944;28.562;77.188;2022-07-29T05:18:40;27.10;;;11.82;;
26201;SDS011;13944;28.562;77.188;2022-07-29T05:21:07;31.75;;;13.23;;
26201;SDS011;13944;28.562;77.188;2022-07-29T05:23:33;20.77;;;12.80;;
26201;SDS011;13944;28.562;77.188;2022-07-29T05:26:00;31.10;;;12.18;;
26201;SDS011;13944;28.562;77.188;2022-07-29T05:28:27;27.38;;;13.23;;
26201;SDS011;13944;28.562;77.188;2022-07-29T05:30:54;28.45;;;13.95;;
26201;SDS011;13944;28.562;77.188;2022-07-29T05:33:21;23.17;;;14.07;;
26201;SDS011;13944;28.562;77.188;2022-07-29T05:35:47;25.70;;;14.38;;
26201;SDS011;13944;28.562;77.188;2022-07-29T05:38:14;28.77;;;15.93;;
26201;SDS011;13944;28.562;77.188;2022-07-29T05:40:40;28.95;;;16.20;;
26201;SDS011;13944;28.562;77.188;2022-07-29T05:43:07;28.27;;;16.17;;
26201;SDS011;13944;28.562;77.188;2022-07-29T05:45:34;31.95;;;16.92;;
26201;SDS011;13944;28.562;77.188;2022-07-29T05:48:00;27.35;;;16.80;;
26201;SDS011;13944;28.562;77.188;2022-07-29T05:50:27;26.13;;;16.60;;
26201;SDS011;13944;28.562;77.188;2022-07-29T05:52:53;27.45;;;17.25;;
26201;SDS011;13944;28.562;77.188;2022-07-29T05:55:20;29.13;;;17.23;;
26201;SDS011;13944;28.562;77.188;2022-07-29T05:57:46;29.67;;;16.15;;
26201;SDS011;13944;28.562;77.188;2022-07-29T06:00:13;32.72;;;16.38;;
26201;SDS011;13944;28.562;77.188;2022-07-29T06:02:40;29.73;;;16.33;;
26201;SDS011;13944;28.562;77.188;2022-07-29T06:05:06;28.85;;;15.68;;
26201;SDS011;13944;28.562;77.188;2022-07-29T06:07:33;28.85;;;16.85;;
26201;SDS011;13944;28.562;77.188;2022-07-29T06:09:59;27.85;;;15.85;;
26201;SDS011;13944;28.562;77.188;2022-07-29T06:12:26;32.10;;;15.02;;
26201;SDS011;13944;28.562;77.188;2022-07-29T06:14:52;29.85;;;15.48;;
26201;SDS011;13944;28.562;77.188;2022-07-29T06:17:19;28.00;;;14.63;;
26201;SDS011;13944;28.562;77.188;2022-07-29T06:19:46;32.55;;;15.35;;
26201;SDS011;13944;28.562;77.188;2022-07-29T06:22:14;25.63;;;13.68;;
26201;SDS011;13944;28.562;77.188;2022-07-29T06:24:41;24.63;;;15.35;;
26201;SDS011;13944;28.562;77.188;2022-07-29T06:27:11;30.10;;;16.83;;
26201;SDS011;13944;28.562;77.188;2022-07-29T06:29:38;28.52;;;15.48;;
26201;SDS011;13944;28.562;77.188;2022-07-29T06:32:05;36.33;;;18.00;;
26201;SDS011;13944;28.562;77.188;2022-07-29T06:34:34;29.20;;;17.77;;
26201;SDS011;13944;28.562;77.188;2022-07-29T06:37:05;32.88;;;17.73;;
26201;SDS011;13944;28.562;77.188;2022-07-29T06:39:33;31.25;;;17.45;;
26201;SDS011;13944;28.562;77.188;2022-07-29T06:42:00;23.27;;;14.95;;
26201;SDS011;13944;28.562;77.188;2022-07-29T06:44:27;24.70;;;14.15;;
26201;SDS011;13944;28.562;77.188;2022-07-29T06:46:53;27.48;;;16.67;;
26201;SDS011;13944;28.562;77.188;2022-07-29T06:49:20;27.35;;;16.08;;
26201;SDS011;13944;28.562;77.188;2022-07-29T06:51:47;33.42;;;18.77;;
26201;SDS011;13944;28.562;77.188;2022-07-29T06:54:13;39.00;;;19.98;;
26201;SDS011;13944;28.562;77.188;2022-07-29T06:56:40;36.33;;;23.17;;
26201;SDS011;13944;28.562;77.188;2022-07-29T06:59:08;31.27;;;23.92;;
26201;SDS011;13944;28.562;77.188;2022-07-29T07:01:39;33.92;;;22.35;;
26201;SDS011;13944;28.562;77.188;2022-07-29T07:04:06;31.77;;;23.00;;
26201;SDS011;13944;28.562;77.188;2022-07-29T07:06:34;34.28;;;22.25;;
26201;SDS011;13944;28.562;77.188;2022-07-29T07:09:00;33.05;;;20.90;;
26201;SDS011;13944;28.562;77.188;2022-07-29T07:11:27;33.50;;;20.08;;
26201;SDS011;13944;28.562;77.188;2022-07-29T07:13:54;23.67;;;16.38;;
26201;SDS011;13944;28.562;77.188;2022-07-29T07:16:20;29.65;;;18.05;;
26201;SDS011;13944;28.562;77.188;2022-07-29T07:18:47;25.42;;;17.73;;
26201;SDS011;13944;28.562;77.188;2022-07-29T07:21:14;28.95;;;17.52;;
26201;SDS011;13944;28.562;77.188;2022-07-29T07:23:40;23.55;;;15.90;;
26201;SDS011;13944;28.562;77.188;2022-07-29T07:26:07;44.72;;;18.48;;
26201;SDS011;13944;28.562;77.188;2022-07-29T07:28:33;34.15;;;18.98;;
26201;SDS011;13944;28.562;77.188;2022-07-29T07:31:00;29.25;;;19.40;;
26201;SDS011;13944;28.562;77.188;2022-07-29T07:33:28;32.95;;;21.05;;
26201;SDS011;13944;28.562;77.188;2022-07-29T07:35:55;40.10;;;23.98;;
26201;SDS011;13944;28.562;77.188;2022-07-29T07:38:21;36.75;;;25.63;;
26201;SDS011;13944;28.562;77.188;2022-07-29T07:40:48;45.17;;;33.03;;
26201;SDS011;13944;28.562;77.188;2022-07-29T07:43:14;42.25;;;31.23;;
26201;SDS011;13944;28.562;77.188;2022-07-29T07:45:41;41.08;;;30.98;;
26201;SDS011;13944;28.562;77.188;2022-07-29T07:48:08;44.13;;;31.15;;
26201;SDS011;13944;28.562;77.188;2022-07-29T07:50:35;46.22;;;31.33;;
26201;SDS011;13944;28.562;77.188;2022-07-29T07:53:02;40.67;;;31.88;;
26201;SDS011;13944;28.562;77.188;2022-07-29T07:55:28;41.17;;;31.35;;
26201;SDS011;13944;28.562;77.188;2022-07-29T07:57:55;43.35;;;33.38;;
26201;SDS011;13944;28.562;77.188;2022-07-29T08:00:22;46.28;;;32.67;;
26201;SDS011;13944;28.562;77.188;2022-07-29T08:02:49;41.50;;;32.05;;
26201;SDS011;13944;28.562;77.188;2022-07-29T08:05:16;39.30;;;30.70;;
26201;SDS011;13944;28.562;77.188;2022-07-29T08:07:43;40.88;;;27.95;;
26201;SDS011;13944;28.562;77.188;2022-07-29T08:10:10;36.50;;;24.15;;
26201;SDS011;13944;28.562;77.188;2022-07-29T08:12:36;33.63;;;22.80;;
26201;SDS011;13944;28.562;77.188;2022-07-29T08:15:03;33.67;;;21.83;;
26201;SDS011;13944;28.562;77.188;2022-07-29T08:17:31;26.63;;;18.10;;
26201;SDS011;13944;28.562;77.188;2022-07-29T08:19:57;30.42;;;16.95;;
26201;SDS011;13944;28.562;77.188;2022-07-29T08:22:24;25.05;;;14.98;;
26201;SDS011;13944;28.562;77.188;2022-07-29T08:24:50;31.70;;;15.40;;
26201;SDS011;13944;28.562;77.188;2022-07-29T08:27:21;31.05;;;15.05;;
26201;SDS011;13944;28.562;77.188;2022-07-29T08:29:48;31.77;;;14.88;;
26201;SDS011;13944;28.562;77.188;2022-07-29T08:32:15;25.20;;;14.77;;
26201;SDS011;13944;28.562;77.188;2022-07-29T08:34:41;28.77;;;13.85;;
26201;SDS011;13944;28.562;77.188;2022-07-29T08:37:11;35.33;;;15.38;;
26201;SDS011;13944;28.562;77.188;2022-07-29T08:39:37;33.80;;;15.00;;
26201;SDS011;13944;28.562;77.188;2022-07-29T08:42:05;26.70;;;12.38;;
26201;SDS011;13944;28.562;77.188;2022-07-29T08:44:31;26.25;;;14.48;;
26201;SDS011;13944;28.562;77.188;2022-07-29T08:46:59;23.92;;;14.35;;
26201;SDS011;13944;28.562;77.188;2022-07-29T08:49:26;29.65;;;14.85;;
26201;SDS011;13944;28.562;77.188;2022-07-29T08:51:52;28.27;;;15.02;;
26201;SDS011;13944;28.562;77.188;2022-07-29T08:54:19;29.42;;;14.77;;
26201;SDS011;13944;28.562;77.188;2022-07-29T08:56:51;28.13;;;14.57;;
26201;SDS011;13944;28.562;77.188;2022-07-29T08:59:19;32.33;;;15.02;;
26201;SDS011;13944;28.562;77.188;2022-07-29T09:01:46;33.78;;;16.10;;
26201;SDS011;13944;28.562;77.188;2022-07-29T09:04:13;34.28;;;17.60;;
26201;SDS011;13944;28.562;77.188;2022-07-29T09:06:45;26.95;;;16.92;;
26201;SDS011;13944;28.562;77.188;2022-07-29T09:09:12;31.08;;;18.65;;
26201;SDS011;13944;28.562;77.188;2022-07-29T09:11:39;27.17;;;18.05;;
26201;SDS011;13944;28.562;77.188;2022-07-29T09:14:06;33.08;;;18.48;;
26201;SDS011;13944;28.562;77.188;2022-07-29T09:16:46;33.47;;;18.80;;
26201;SDS011;13944;28.562;77.188;2022-07-29T09:19:19;29.85;;;17.70;;
26201;SDS011;13944;28.562;77.188;2022-07-29T09:21:46;25.05;;;18.17;;
26201;SDS011;13944;28.562;77.188;2022-07-29T09:24:26;31.13;;;17.92;;
26201;SDS011;13944;28.562;77.188;2022-07-29T09:26:53;29.85;;;18.02;;
26201;SDS011;13944;28.562;77.188;2022-07-29T09:29:20;34.90;;;17.05;;
26201;SDS011;13944;28.562;77.188;2022-07-29T09:31:48;26.65;;;15.90;;
26201;SDS011;13944;28.562;77.188;2022-07-29T09:34:15;37.83;;;18.50;;
26201;SDS011;13944;28.562;77.188;2022-07-29T09:36:43;30.38;;;17.30;;
26201;SDS011;13944;28.562;77.188;2022-07-29T09:39:10;25.90;;;17.15;;
26201;SDS011;13944;28.562;77.188;2022-07-29T09:41:46;28.88;;;17.63;;
26201;SDS011;13944;28.562;77.188;2022-07-29T09:44:13;32.88;;;18.58;;
26201;SDS011;13944;28.562;77.188;2022-07-29T09:46:41;34.72;;;17.63;;
26201;SDS011;13944;28.562;77.188;2022-07-29T09:49:18;32.05;;;17.42;;
26201;SDS011;13944;28.562;77.188;2022-07-29T09:51:45;29.30;;;17.58;;
26201;SDS011;13944;28.562;77.188;2022-07-29T09:54:22;28.48;;;16.40;;
26201;SDS011;13944;28.562;77.188;2022-07-29T09:56:49;29.88;;;17.25;;
26201;SDS011;13944;28.562;77.188;2022-07-29T09:59:15;27.73;;;17.73;;
26201;SDS011;13944;28.562;77.188;2022-07-29T10:01:42;27.10;;;15.90;;
26201;SDS011;13944;28.562;77.188;2022-07-29T10:04:09;24.10;;;15.50;;
26201;SDS011;13944;28.562;77.188;2022-07-29T10:06:37;26.30;;;16.05;;
26201;SDS011;13944;28.562;77.188;2022-07-29T10:09:21;26.80;;;14.98;;
26201;SDS011;13944;28.562;77.188;2022-07-29T10:14:34;25.13;;;15.57;;
26201;SDS011;13944;28.562;77.188;2022-07-29T10:17:01;25.48;;;15.05;;
26201;SDS011;13944;28.562;77.188;2022-07-29T10:19:29;26.08;;;15.23;;
26201;SDS011;13944;28.562;77.188;2022-07-29T10:21:59;23.70;;;14.52;;
26201;SDS011;13944;28.562;77.188;2022-07-29T10:24:26;26.13;;;14.23;;
26201;SDS011;13944;28.562;77.188;2022-07-29T10:26:56;26.08;;;13.55;;
26201;SDS011;13944;28.562;77.188;2022-07-29T10:29:24;25.65;;;13.70;;
26201;SDS011;13944;28.562;77.188;2022-07-29T10:37:12;23.20;;;13.65;;
26201;SDS011;13944;28.562;77.188;2022-07-29T10:42:20;20.25;;;11.73;;
26201;SDS011;13944;28.562;77.188;2022-07-29T10:44:48;18.65;;;9.85;;
26201;SDS011;13944;28.562;77.188;2022-07-29T10:50:20;19.88;;;8.57;;
26201;SDS011;13944;28.562;77.188;2022-07-29T10:55:31;14.93;;;6.80;;
26201;SDS011;13944;28.562;77.188;2022-07-29T10:58:12;14.18;;;6.32;;
26201;SDS011;13944;28.562;77.188;2022-07-29T11:00:39;14.48;;;6.20;;
26201;SDS011;13944;28.562;77.188;2022-07-29T11:03:05;12.02;;;5.28;;
26201;SDS011;13944;28.562;77.188;2022-07-29T11:08:18;18.15;;;5.95;;
26201;SDS011;13944;28.562;77.188;2022-07-29T11:10:48;25.55;;;6.63;;
26201;SDS011;13944;28.562;77.188;2022-07-29T11:16:00;19.15;;;8.45;;
26201;SDS011;13944;28.562;77.188;2022-07-29T11:18:27;17.45;;;9.07;;
26201;SDS011;13944;28.562;77.188;2022-07-29T11:20:54;21.55;;;9.48;;
26201;SDS011;13944;28.562;77.188;2022-07-29T11:23:27;24.00;;;10.35;;
26201;SDS011;13944;28.562;77.188;2022-07-29T11:28:54;21.98;;;9.93;;
26201;SDS011;13944;28.562;77.188;2022-07-29T11:39:28;16.95;;;8.00;;
26201;SDS011;13944;28.562;77.188;2022-07-29T11:42:33;16.77;;;8.43;;
26201;SDS011;13944;28.562;77.188;2022-07-29T11:44:54;18.58;;;8.75;;
26201;SDS011;13944;28.562;77.188;2022-07-29T11:47:24;14.63;;;8.02;;
26201;SDS011;13944;28.562;77.188;2022-07-29T11:49:52;16.90;;;8.80;;
26201;SDS011;13944;28.562;77.188;2022-07-29T11:52:19;16.08;;;7.90;;
26201;SDS011;13944;28.562;77.188;2022-07-29T11:54:47;17.35;;;7.82;;
26201;SDS011;13944;28.562;77.188;2022-07-29T11:57:19;15.00;;;7.15;;
26201;SDS011;13944;28.562;77.188;2022-07-29T11:59:46;14.10;;;7.10;;
26201;SDS011;13944;28.562;77.188;2022-07-29T12:02:13;13.52;;;6.65;;
26201;SDS011;13944;28.562;77.188;2022-07-29T12:04:51;16.48;;;7.57;;
26201;SDS011;13944;28.562;77.188;2022-07-29T12:07:18;13.15;;;6.53;;
26201;SDS011;13944;28.562;77.188;2022-07-29T12:09:51;13.02;;;7.32;;
26201;SDS011;13944;28.562;77.188;2022-07-29T12:12:18;14.70;;;7.20;;
26201;SDS011;13944;28.562;77.188;2022-07-29T12:14:44;14.30;;;7.20;;
26201;SDS011;13944;28.562;77.188;2022-07-29T12:17:33;12.95;;;7.47;;
26201;SDS011;13944;28.562;77.188;2022-07-29T12:20:01;19.55;;;9.43;;
26201;SDS011;13944;28.562;77.188;2022-07-29T12:22:29;20.42;;;9.38;;
26201;SDS011;13944;28.562;77.188;2022-07-29T12:25:00;14.85;;;8.65;;
26201;SDS011;13944;28.562;77.188;2022-07-29T12:27:27;19.42;;;9.02;;
26201;SDS011;13944;28.562;77.188;2022-07-29T12:29:58;17.92;;;9.27;;
26201;SDS011;13944;28.562;77.188;2022-07-29T12:32:34;21.85;;;9.43;;
26201;SDS011;13944;28.562;77.188;2022-07-29T12:35:08;15.88;;;9.02;;
26201;SDS011;13944;28.562;77.188;2022-07-29T12:37:36;17.40;;;10.43;;
26201;SDS011;13944;28.562;77.188;2022-07-29T12:40:03;18.30;;;10.63;;
26201;SDS011;13944;28.562;77.188;2022-07-29T12:42:30;18.77;;;11.27;;
26201;SDS011;13944;28.562;77.188;2022-07-29T12:44:57;18.77;;;10.35;;
26201;SDS011;13944;28.562;77.188;2022-07-29T12:47:23;18.15;;;11.70;;
26201;SDS011;13944;28.562;77.188;2022-07-29T12:49:50;16.73;;;10.57;;
26201;SDS011;13944;28.562;77.188;2022-07-29T12:52:50;18.45;;;10.55;;
26201;SDS011;13944;28.562;77.188;2022-07-29T12:55:10;20.27;;;11.25;;
26201;SDS011;13944;28.562;77.188;2022-07-29T12:57:49;17.40;;;11.27;;
26201;SDS011;13944;28.562;77.188;2022-07-29T13:00:23;17.33;;;10.75;;
26201;SDS011;13944;28.562;77.188;2022-07-29T13:02:56;19.02;;;11.65;;
26201;SDS011;13944;28.562;77.188;2022-07-29T13:05:23;19.60;;;10.85;;
26201;SDS011;13944;28.562;77.188;2022-07-29T13:07:50;16.70;;;10.20;;
26201;SDS011;13944;28.562;77.188;2022-07-29T13:10:17;16.33;;;9.98;;
26201;SDS011;13944;28.562;77.188;2022-07-29T13:15:29;17.35;;;10.90;;
26201;SDS011;13944;28.562;77.188;2022-07-29T13:17:56;26.05;;;12.52;;
26201;SDS011;13944;28.562;77.188;2022-07-29T13:20:27;23.20;;;14.80;;
26201;SDS011;13944;28.562;77.188;2022-07-29T13:22:56;20.08;;;11.50;;
26201;SDS011;13944;28.562;77.188;2022-07-29T13:25:27;18.15;;;11.82;;
26201;SDS011;13944;28.562;77.188;2022-07-29T13:27:54;17.10;;;10.13;;
26201;SDS011;13944;28.562;77.188;2022-07-29T13:30:21;16.52;;;10.43;;
26201;SDS011;13944;28.562;77.188;2022-07-29T13:32:48;17.85;;;11.45;;
26201;SDS011;13944;28.562;77.188;2022-07-29T13:35:15;18.90;;;11.25;;
26201;SDS011;13944;28.562;77.188;2022-07-29T13:37:41;18.98;;;12.35;;
26201;SDS011;13944;28.562;77.188;2022-07-29T13:40:09;18.80;;;10.80;;
26201;SDS011;13944;28.562;77.188;2022-07-29T13:42:35;16.92;;;11.93;;
26201;SDS011;13944;28.562;77.188;2022-07-29T13:45:02;17.27;;;11.15;;
26201;SDS011;13944;28.562;77.188;2022-07-29T13:47:29;17.95;;;10.60;;
26201;SDS011;13944;28.562;77.188;2022-07-29T13:49:56;17.42;;;10.20;;
26201;SDS011;13944;28.562;77.188;2022-07-29T13:52:23;19.92;;;10.95;;
26201;SDS011;13944;28.562;77.188;2022-07-29T13:54:49;18.13;;;11.23;;
26201;SDS011;13944;28.562;77.188;2022-07-29T13:57:16;21.05;;;9.82;;
26201;SDS011;13944;28.562;77.188;2022-07-29T13:59:42;15.07;;;9.32;;
26201;SDS011;13944;28.562;77.188;2022-07-29T14:02:10;18.98;;;9.98;;
26201;SDS011;13944;28.562;77.188;2022-07-29T14:04:37;17.23;;;9.48;;
26201;SDS011;13944;28.562;77.188;2022-07-29T14:07:05;16.17;;;9.50;;
26201;SDS011;13944;28.562;77.188;2022-07-29T14:09:32;17.42;;;10.02;;
26201;SDS011;13944;28.562;77.188;2022-07-29T14:11:58;18.58;;;10.77;;
26201;SDS011;13944;28.562;77.188;2022-07-29T14:14:26;25.75;;;10.68;;
26201;SDS011;13944;28.562;77.188;2022-07-29T14:16:53;17.98;;;11.73;;
26201;SDS011;13944;28.562;77.188;2022-07-29T14:19:19;19.73;;;11.10;;
26201;SDS011;13944;28.562;77.188;2022-07-29T14:21:46;21.58;;;10.57;;
26201;SDS011;13944;28.562;77.188;2022-07-29T14:24:12;18.65;;;10.90;;
26201;SDS011;13944;28.562;77.188;2022-07-29T14:26:39;19.77;;;11.27;;
26201;SDS011;13944;28.562;77.188;2022-07-29T14:29:05;20.17;;;12.77;;
26201;SDS011;13944;28.562;77.188;2022-07-29T14:31:32;20.85;;;12.35;;
26201;SDS011;13944;28.562;77.188;2022-07-29T14:33:59;23.10;;;12.93;;
26201;SDS011;13944;28.562;77.188;2022-07-29T14:36:25;19.95;;;12.90;;
26201;SDS011;13944;28.562;77.188;2022-07-29T14:38:52;22.35;;;13.52;;
26201;SDS011;13944;28.562;77.188;2022-07-29T14:41:19;22.30;;;13.82;;
26201;SDS011;13944;28.562;77.188;2022-07-29T14:43:46;20.55;;;13.25;;
26201;SDS011;13944;28.562;77.188;2022-07-29T14:46:13;21.25;;;14.52;;
26201;SDS011;13944;28.562;77.188;2022-07-29T14:48:40;26.65;;;15.95;;
26201;SDS011;13944;28.562;77.188;2022-07-29T14:51:06;25.48;;;16.02;;
26201;SDS011;13944;28.562;77.188;2022-07-29T14:53:33;26.27;;;15.45;;
26201;SDS011;13944;28.562;77.188;2022-07-29T14:55:59;19.90;;;13.85;;
26201;SDS011;13944;28.562;77.188;2022-07-29T14:58:26;23.77;;;14.45;;
26201;SDS011;13944;28.562;77.188;2022-07-29T15:00:52;24.83;;;13.75;;
26201;SDS011;13944;28.562;77.188;2022-07-29T15:03:20;25.50;;;14.40;;
26201;SDS011;13944;28.562;77.188;2022-07-29T15:05:46;26.63;;;14.50;;
26201;SDS011;13944;28.562;77.188;2022-07-29T15:08:13;24.67;;;15.68;;